Terminal Aerodrome Forecast
Issued by NWS

Home | Current Version | Previous Version | Text Only | Print | Product List | Glossary On
Versions: 1 2 3 4 5 6 7 8 9 10 11 12
000
FTUS45 KTFX 021700
TAFLWT
TAF
KLWT 021730Z 0218/0318 31012G18KT 4SM -SN BKN006 BKN012
      TEMPO 0218/0220 1SM -SN BR
     FM022200 31010KT P6SM SCT030 BKN060
     FM030100 26008KT P6SM FEW120
      TEMPO 0306/0310 2SM BR BKN002=

USA.gov is the U.S. government's official web portal to all federal, state and local government web resources and services.